createdAt,value
2023-01-01T00:03:52.110Z,75.40
2023-01-01T00:09:09.820Z,75.50
2023-01-01T00:14:14.962Z,75.30
2023-01-01T00:19:18.600Z,75.30
2023-01-01T00:24:22.409Z,75.60
2023-01-01T00:29:27.384Z,77.30
2023-01-01T00:34:31.108Z,77.20
2023-01-01T00:39:34.661Z,77.10
2023-01-01T00:44:39.754Z,76.90
2023-01-01T00:49:43.402Z,76.80
2023-01-01T00:54:46.996Z,76.80
2023-01-01T00:59:51.933Z,76.80
2023-01-01T01:04:55.580Z,76.80
2023-01-01T01:09:59.544Z,76.80
2023-01-01T01:15:06.308Z,76.80
2023-01-01T01:20:12.705Z,76.80
2023-01-01T01:25:16.372Z,76.90
2023-01-01T01:30:21.550Z,77.10
2023-01-01T01:35:25.150Z,77.10
2023-01-01T01:40:28.714Z,77.10
2023-01-01T01:45:33.802Z,77.00
2023-01-01T01:50:41.742Z,77.10
2023-01-01T01:55:52.464Z,77.00
2023-01-01T02:00:58.071Z,77.10
2023-01-01T02:06:02.773Z,77.30
2023-01-01T02:11:06.744Z,77.10
2023-01-01T02:16:23.896Z,77.20
2023-01-01T02:21:33.803Z,77.20
2023-01-01T02:26:55.071Z,77.10
2023-01-01T02:32:05.133Z,77.10
2023-01-01T02:37:14.705Z,77.20
2023-01-01T02:42:19.285Z,77.10
2023-01-01T02:47:24.325Z,77.20
2023-01-01T02:52:56.467Z,77.50
2023-01-01T02:58:26.309Z,77.40
2023-01-01T03:03:41.327Z,77.50
2023-01-01T03:08:56.294Z,78.20
2023-01-01T03:14:09.220Z,77.90
2023-01-01T03:19:20.772Z,77.70
2023-01-01T03:24:32.420Z,78.40
2023-01-01T03:29:45.324Z,78.20
2023-01-01T03:34:55.482Z,78.20
2023-01-01T03:40:01.229Z,77.90
2023-01-01T03:45:12.624Z,77.90
2023-01-01T03:50:18.296Z,78.00
2023-01-01T03:55:30.662Z,77.80
2023-01-01T04:00:39.339Z,79.00
2023-01-01T04:05:45.396Z,78.90
2023-01-01T04:10:56.045Z,78.70
2023-01-01T04:15:59.733Z,78.20
2023-01-01T04:21:05.070Z,78.30
2023-01-01T04:26:15.177Z,77.80
2023-01-01T04:31:18.795Z,77.90
2023-01-01T04:36:23.870Z,77.60
2023-01-01T04:41:27.502Z,77.80
2023-01-01T04:46:31.192Z,77.40
2023-01-01T04:51:36.175Z,77.40
2023-01-01T04:56:39.927Z,77.30
2023-01-01T05:01:43.733Z,77.60
2023-01-01T05:06:48.893Z,77.60
2023-01-01T05:11:52.616Z,77.50
2023-01-01T05:16:56.277Z,77.30
2023-01-01T05:22:10.180Z,77.30
2023-01-01T05:27:14.440Z,77.20
2023-01-01T05:37:22.195Z,77.30
2023-01-01T05:42:25.834Z,77.30
2023-01-01T05:47:30.165Z,77.30
2023-01-01T05:52:35.165Z,77.70
2023-01-01T05:57:38.783Z,78.40
2023-01-01T06:02:42.365Z,77.70
2023-01-01T06:07:48.832Z,77.50
2023-01-01T06:12:54.255Z,77.50
2023-01-01T06:17:59.167Z,77.60
2023-01-01T06:23:04.197Z,77.60
2023-01-01T06:28:07.897Z,77.70
2023-01-01T06:33:11.514Z,78.10
2023-01-01T06:38:16.480Z,77.60
2023-01-01T06:43:20.086Z,77.30
2023-01-01T06:48:23.767Z,77.50
2023-01-01T06:53:28.938Z,77.50
2023-01-01T06:58:32.863Z,77.40
2023-01-01T07:03:36.938Z,77.40
2023-01-01T07:08:41.955Z,77.40
2023-01-01T07:13:46.095Z,78.40
2023-01-01T07:18:50.775Z,77.70
2023-01-01T07:23:57.071Z,77.50
2023-01-01T07:29:07.992Z,77.40
2023-01-01T07:34:16.889Z,77.30
2023-01-01T07:39:21.861Z,77.40
2023-01-01T07:44:25.412Z,77.30
2023-01-01T07:49:28.978Z,77.40
2023-01-01T07:54:34.044Z,77.20
2023-01-01T07:59:38.176Z,77.20
2023-01-01T08:04:41.811Z,77.20
2023-01-01T08:09:48.082Z,77.30
2023-01-01T08:14:51.864Z,77.60
2023-01-01T08:19:55.480Z,77.70
2023-01-01T08:25:00.479Z,77.80
2023-01-01T08:30:04.832Z,77.80
2023-01-01T08:35:10.340Z,77.80
2023-01-01T08:40:15.850Z,78.20
2023-01-01T08:45:19.468Z,77.60
2023-01-01T08:50:23.328Z,77.60
2023-01-01T08:55:29.489Z,77.80
2023-01-01T09:00:33.096Z,77.80
2023-01-01T09:05:36.650Z,77.90
2023-01-01T09:10:43.489Z,78.60
2023-01-01T09:15:47.264Z,77.80
2023-01-01T09:20:51.009Z,78.00
2023-01-01T09:25:58.220Z,76.20
2023-01-01T09:31:02.820Z,75.30
2023-01-01T09:36:28.571Z,74.60
2023-01-01T09:41:54.452Z,75.20
2023-01-01T09:47:03.716Z,75.10
2023-01-01T09:52:08.350Z,75.40
2023-01-01T09:57:20.056Z,75.40
2023-01-01T10:02:48.075Z,75.60
2023-01-01T10:08:02.749Z,75.70
2023-01-01T10:13:23.783Z,75.80
2023-01-01T10:18:33.517Z,75.90
2023-01-01T10:23:45.064Z,76.00
2023-01-01T10:29:01.729Z,76.00
2023-01-01T10:34:18.125Z,76.30
2023-01-01T10:39:22.171Z,76.30
2023-01-01T10:44:33.069Z,76.40
2023-01-01T10:49:58.765Z,76.40
2023-01-01T10:55:02.803Z,76.50
2023-01-01T11:00:26.279Z,76.40
2023-01-01T11:05:29.911Z,76.40
2023-01-01T11:10:33.700Z,76.50
2023-01-01T11:15:43.001Z,76.50
2023-01-01T11:20:53.993Z,76.40
2023-01-01T11:26:08.837Z,76.20
2023-01-01T11:31:20.724Z,76.10
2023-01-01T11:36:26.945Z,76.20
2023-01-01T11:41:30.642Z,76.40
2023-01-01T11:46:35.593Z,76.30
2023-01-01T11:51:39.242Z,76.20
2023-01-01T11:56:42.891Z,76.30
2023-01-01T12:01:52.355Z,76.30
2023-01-01T12:07:04.339Z,76.20
2023-01-01T12:12:14.688Z,76.30
2023-01-01T12:17:26.389Z,76.30
2023-01-01T12:22:30.223Z,76.30
2023-01-01T12:27:58.419Z,76.50
2023-01-01T12:33:33.085Z,76.70
2023-01-01T12:39:22.833Z,76.70
2023-01-01T12:44:40.905Z,76.50
2023-01-01T12:50:03.422Z,76.50
2023-01-01T12:56:03.389Z,76.50
2023-01-01T13:01:15.114Z,76.50
2023-01-01T13:06:29.095Z,76.40
2023-01-01T13:11:33.798Z,76.30
2023-01-01T13:16:42.447Z,76.40
2023-01-01T13:21:47.606Z,76.40
2023-01-01T13:26:52.306Z,76.50
2023-01-01T13:32:08.810Z,76.30
2023-01-01T13:37:48.588Z,76.40
2023-01-01T13:43:19.811Z,76.40
2023-01-01T13:49:22.365Z,76.40
2023-01-01T14:01:36.103Z,76.50
2023-01-01T14:06:44.451Z,76.50
2023-01-01T14:11:49.749Z,76.50
2023-01-01T14:16:56.380Z,76.50
2023-01-01T14:22:00.994Z,76.50
2023-01-01T14:27:07.469Z,76.50
2023-01-01T14:32:19.745Z,77.30
2023-01-01T14:37:26.073Z,77.40
2023-01-01T14:42:31.238Z,78.00
2023-01-01T14:47:36.809Z,77.80
2023-01-01T14:52:40.901Z,77.80
2023-01-01T14:57:52.021Z,77.70
2023-01-01T15:02:55.741Z,77.50
2023-01-01T15:08:02.137Z,78.20
2023-01-01T15:13:14.616Z,77.50
2023-01-01T15:18:41.864Z,77.30
2023-01-01T15:23:56.980Z,77.80
2023-01-01T15:29:02.835Z,78.90
2023-01-01T15:34:07.409Z,78.20
2023-01-01T15:39:12.939Z,78.30
2023-01-01T15:44:28.380Z,78.20
2023-01-01T15:49:33.783Z,78.10
2023-01-01T15:54:41.391Z,78.10
2023-01-01T15:59:47.779Z,79.00
2023-01-01T16:04:52.600Z,80.00
2023-01-01T16:09:58.047Z,81.50
2023-01-01T16:15:03.314Z,80.60
2023-01-01T16:20:09.036Z,81.40
2023-01-01T16:25:19.167Z,81.20
2023-01-01T16:30:27.895Z,87.90
2023-01-01T16:35:31.478Z,85.60
2023-01-01T16:40:38.111Z,86.30
2023-01-01T16:45:43.442Z,85.70
2023-01-01T16:50:47.348Z,85.10
2023-01-01T16:55:53.123Z,84.70
2023-01-01T17:01:02.509Z,84.30
2023-01-01T17:06:08.361Z,83.80
2023-01-01T17:11:16.743Z,83.50
2023-01-01T17:16:27.298Z,83.30
2023-01-01T17:21:32.746Z,83.50
2023-01-01T17:26:36.324Z,83.30
2023-01-01T17:31:41.290Z,83.00
2023-01-01T17:36:46.322Z,82.80
2023-01-01T17:41:50.891Z,82.80
2023-01-01T17:46:55.987Z,83.50
2023-01-01T17:51:59.616Z,83.10
2023-01-01T17:57:03.932Z,82.20
2023-01-01T18:02:13.978Z,81.80
2023-01-01T18:07:17.662Z,81.60
2023-01-01T18:12:21.522Z,80.60
2023-01-01T18:17:26.679Z,81.30
2023-01-01T18:22:30.215Z,82.10
2023-01-01T18:27:33.873Z,79.90
2023-01-01T18:32:38.870Z,78.60
2023-01-01T18:37:42.551Z,78.20
2023-01-01T18:42:55.726Z,78.20
2023-01-01T18:48:02.700Z,78.60
2023-01-01T18:53:19.831Z,78.60
2023-01-01T18:58:26.697Z,79.30
2023-01-01T19:03:37.484Z,78.60
2023-01-01T19:08:44.547Z,78.60
2023-01-01T19:13:48.150Z,78.70
2023-01-01T19:18:54.327Z,78.80
2023-01-01T19:24:02.164Z,78.90
2023-01-01T19:29:16.958Z,79.30
2023-01-01T19:34:22.733Z,79.40
2023-01-01T19:39:26.835Z,79.40
2023-01-01T19:44:30.427Z,79.50
2023-01-01T19:49:35.583Z,79.50
2023-01-01T19:54:39.111Z,79.60
2023-01-01T19:59:42.724Z,79.60
2023-01-01T20:04:47.879Z,79.70
2023-01-01T20:09:51.568Z,79.70
2023-01-01T20:14:56.157Z,79.80
2023-01-01T20:20:01.219Z,80.10
2023-01-01T20:25:05.625Z,80.20
2023-01-01T20:30:11.536Z,80.30
2023-01-01T20:35:16.858Z,80.30
2023-01-01T20:40:20.514Z,80.70
2023-01-01T20:45:24.828Z,80.80
2023-01-01T20:50:29.938Z,80.90
2023-01-01T20:55:33.583Z,81.10
2023-01-01T21:00:37.225Z,81.20
2023-01-01T21:05:42.314Z,81.00
2023-01-01T21:10:46.072Z,81.70
2023-01-01T21:15:49.739Z,81.80
2023-01-01T21:20:54.775Z,81.80
2023-01-01T21:25:59.292Z,81.60
2023-01-01T21:31:03.984Z,81.60
2023-01-01T21:36:19.200Z,81.60
2023-01-01T21:41:25.523Z,81.40
2023-01-01T21:46:36.694Z,82.20
2023-01-01T21:51:46.459Z,81.30
2023-01-01T21:56:57.562Z,81.50
2023-01-01T22:02:39.317Z,81.30
2023-01-01T22:08:02.606Z,81.30
2023-01-01T22:13:19.207Z,81.30
2023-01-01T22:18:27.244Z,81.40
2023-01-01T22:23:39.674Z,81.30
2023-01-01T22:28:45.988Z,81.60
2023-01-01T22:33:51.151Z,81.40
2023-01-01T22:39:01.186Z,81.20
2023-01-01T22:44:06.224Z,81.30
2023-01-01T22:49:20.121Z,81.30
2023-01-01T22:54:25.224Z,81.30
2023-01-01T22:59:29.075Z,81.20
2023-01-01T23:04:33.099Z,81.20
2023-01-01T23:09:38.216Z,81.20
2023-01-01T23:14:59.596Z,81.10
2023-01-01T23:20:03.560Z,81.80
2023-01-01T23:25:14.755Z,81.10
2023-01-01T23:30:18.996Z,81.00
2023-01-01T23:35:22.670Z,80.90
2023-01-01T23:40:28.169Z,80.80
2023-01-01T23:45:31.995Z,80.90
2023-01-01T23:50:39.584Z,80.90
2023-01-01T23:55:45.137Z,80.80
